Time,TemperatureF,DewpointF,PressureIn,WindDirection,WindDirectionDegrees,WindSpeedMPH,WindSpeedGustMPH,Humidity,HourlyPrecipIn,Conditions,Clouds,dailyrainin,SoftwareType,DateUTC
2013-10-09 00:01:00,36.2,29.0,29.68,WSW,247,0.0,0.0,74,0.00,,,0.00,Rainwise IP-100,2013-10-09 04:01:00,
2013-10-09 00:06:00,36.0,29.0,29.69,WNW,292,2.0,2.0,76,0.00,,,0.00,Rainwise IP-100,2013-10-09 04:06:00,
2013-10-09 00:11:00,36.1,28.0,29.69,WNW,292,0.0,2.0,73,0.00,,,0.00,Rainwise IP-100,2013-10-09 04:11:00,
2013-10-09 00:16:00,35.9,28.0,29.69,WNW,292,0.0,0.0,72,0.00,,,0.00,Rainwise IP-100,2013-10-09 04:16:00,
2013-10-09 00:21:00,35.8,28.0,29.68,WNW,292,1.0,2.0,72,0.00,,,0.00,Rainwise IP-100,2013-10-09 04:21:00,
2013-10-09 00:26:00,36.0,31.0,29.68,West,270,4.0,5.0,81,0.00,,,0.00,Rainwise IP-100,2013-10-09 04:26:00,
2013-10-09 00:31:00,36.8,32.0,29.69,WSW,247,0.0,4.0,81,0.00,,,0.00,Rainwise IP-100,2013-10-09 04:31:00,
2013-10-09 00:37:00,37.3,29.0,29.69,ESE,112,1.0,3.0,74,0.00,,,0.00,Rainwise IP-100,2013-10-09 04:37:00,
2013-10-09 00:42:00,37.2,29.0,29.69,ESE,112,0.0,1.0,73,0.00,,,0.00,Rainwise IP-100,2013-10-09 04:42:00,
2013-10-09 00:47:00,36.8,29.0,29.69,ESE,112,0.0,0.0,72,0.00,,,0.00,Rainwise IP-100,2013-10-09 04:47:00,
2013-10-09 00:52:00,35.9,28.0,29.69,ESE,112,0.0,0.0,73,0.00,,,0.00,Rainwise IP-100,2013-10-09 04:52:00,
2013-10-09 00:57:00,36.2,31.0,29.69,SW,225,4.0,5.0,80,0.00,,,0.00,Rainwise IP-100,2013-10-09 04:57:00,
2013-10-09 01:02:00,36.8,32.0,29.69,WSW,247,1.0,5.0,84,0.00,,,0.00,Rainwise IP-100,2013-10-09 05:02:00,
2013-10-09 01:07:00,36.8,32.0,29.69,WSW,247,0.0,3.0,81,0.00,,,0.00,Rainwise IP-100,2013-10-09 05:07:00,
2013-10-09 01:12:00,36.5,31.0,29.69,WSW,247,0.0,1.0,77,0.00,,,0.00,Rainwise IP-100,2013-10-09 05:12:00,
2013-10-09 01:18:00,36.1,29.0,29.69,WSW,247,0.0,0.0,76,0.00,,,0.00,Rainwise IP-100,2013-10-09 05:18:00,
2013-10-09 01:23:00,35.9,29.0,29.69,WNW,292,1.0,4.0,76,0.00,,,0.00,Rainwise IP-100,2013-10-09 05:23:00,
2013-10-09 01:28:00,35.4,28.0,29.69,WNW,292,0.0,2.0,75,0.00,,,0.00,Rainwise IP-100,2013-10-09 05:28:00,
2013-10-09 01:33:00,35.0,28.0,29.68,WNW,292,0.0,0.0,75,0.00,,,0.00,Rainwise IP-100,2013-10-09 05:33:00,
2013-10-09 01:38:00,34.8,29.0,29.68,WNW,292,4.0,4.0,79,0.00,,,0.00,Rainwise IP-100,2013-10-09 05:38:00,
2013-10-09 01:43:00,35.1,29.0,29.68,WSW,247,3.0,4.0,81,0.00,,,0.00,Rainwise IP-100,2013-10-09 05:43:00,
2013-10-09 01:48:00,35.7,29.0,29.68,WSW,247,0.0,3.0,78,0.00,,,0.00,Rainwise IP-100,2013-10-09 05:48:00,
2013-10-09 01:54:00,36.0,28.0,29.68,ESE,112,0.0,5.0,72,0.00,,,0.00,Rainwise IP-100,2013-10-09 05:54:00,
2013-10-09 01:59:00,35.7,28.0,29.69,SSW,202,0.0,2.0,72,0.00,,,0.00,Rainwise IP-100,2013-10-09 05:59:00,
2013-10-09 02:04:00,35.1,26.0,29.69,ESE,112,1.0,2.0,72,0.00,,,0.00,Rainwise IP-100,2013-10-09 06:04:00,
2013-10-09 02:09:00,34.9,28.0,29.69,NW,315,0.0,4.0,74,0.00,,,0.00,Rainwise IP-100,2013-10-09 06:09:00,
2013-10-09 02:14:00,34.6,28.0,29.69,NW,315,0.0,2.0,75,0.00,,,0.00,Rainwise IP-100,2013-10-09 06:14:00,
2013-10-09 02:19:00,34.8,28.0,29.69,SSE,157,2.0,5.0,73,0.00,,,0.00,Rainwise IP-100,2013-10-09 06:19:00,
2013-10-09 02:24:00,34.9,28.0,29.69,West,270,1.0,4.0,75,0.00,,,0.00,Rainwise IP-100,2013-10-09 06:24:00,
2013-10-09 02:29:00,34.8,28.0,29.69,West,270,0.0,1.0,74,0.00,,,0.00,Rainwise IP-100,2013-10-09 06:29:00,
2013-10-09 02:35:00,34.9,26.0,29.69,West,270,0.0,0.0,72,0.00,,,0.00,Rainwise IP-100,2013-10-09 06:35:00,
2013-10-09 02:40:00,34.4,26.0,29.69,West,270,0.0,0.0,72,0.00,,,0.00,Rainwise IP-100,2013-10-09 06:40:00,
2013-10-09 02:45:00,34.4,28.0,29.69,West,270,0.0,0.0,74,0.00,,,0.00,Rainwise IP-100,2013-10-09 06:45:00,
2013-10-09 02:50:00,34.1,28.0,29.69,West,270,0.0,3.0,75,0.00,,,0.00,Rainwise IP-100,2013-10-09 06:50:00,
2013-10-09 02:55:00,33.9,28.0,29.69,West,270,0.0,2.0,75,0.00,,,0.00,Rainwise IP-100,2013-10-09 06:55:00,
2013-10-09 03:00:00,33.7,28.0,29.69,West,270,0.0,0.0,75,0.00,,,0.00,Rainwise IP-100,2013-10-09 07:00:00,
2013-10-09 03:05:00,33.4,28.0,29.69,West,270,1.0,3.0,77,0.00,,,0.00,Rainwise IP-100,2013-10-09 07:05:00,
2013-10-09 03:11:00,33.2,26.0,29.69,West,270,0.0,3.0,76,0.00,,,0.00,Rainwise IP-100,2013-10-09 07:11:00,
2013-10-09 03:16:00,33.2,26.0,29.69,West,270,0.0,0.0,76,0.00,,,0.00,Rainwise IP-100,2013-10-09 07:16:00,
2013-10-09 03:21:00,33.0,26.0,29.69,West,270,0.0,0.0,76,0.00,,,0.00,Rainwise IP-100,2013-10-09 07:21:00,
2013-10-09 03:26:00,33.1,26.0,29.69,West,270,1.0,2.0,76,0.00,,,0.00,Rainwise IP-100,2013-10-09 07:26:00,
2013-10-09 03:31:00,33.0,26.0,29.69,WNW,292,3.0,3.0,76,0.00,,,0.00,Rainwise IP-100,2013-10-09 07:31:00,
2013-10-09 03:36:00,32.9,28.0,29.70,WNW,292,0.0,4.0,77,0.00,,,0.00,Rainwise IP-100,2013-10-09 07:36:00,
2013-10-09 03:41:00,32.5,28.0,29.70,WNW,292,0.0,0.0,77,0.00,,,0.00,Rainwise IP-100,2013-10-09 07:41:00,
2013-10-09 03:46:00,32.5,28.0,29.70,WNW,292,2.0,4.0,79,0.00,,,0.00,Rainwise IP-100,2013-10-09 07:46:00,
2013-10-09 03:52:00,32.2,26.0,29.70,WNW,292,0.0,4.0,78,0.00,,,0.00,Rainwise IP-100,2013-10-09 07:52:00,
2013-10-09 03:57:00,32.1,26.0,29.70,WNW,292,0.0,4.0,80,0.00,,,0.00,Rainwise IP-100,2013-10-09 07:57:00,
2013-10-09 04:02:00,31.7,26.0,29.70,WNW,292,0.0,0.0,80,0.00,,,0.00,Rainwise IP-100,2013-10-09 08:02:00,
2013-10-09 04:07:00,31.8,28.0,29.70,WNW,292,0.0,2.0,81,0.00,,,0.00,Rainwise IP-100,2013-10-09 08:07:00,
2013-10-09 04:12:00,31.6,28.0,29.70,WNW,292,0.0,0.0,81,0.00,,,0.00,Rainwise IP-100,2013-10-09 08:12:00,
2013-10-09 04:17:00,31.9,28.0,29.70,WNW,292,0.0,0.0,82,0.00,,,0.00,Rainwise IP-100,2013-10-09 08:17:00,
2013-10-09 04:22:00,31.8,26.0,29.71,WNW,292,0.0,0.0,79,0.00,,,0.00,Rainwise IP-100,2013-10-09 08:22:00,
2013-10-09 04:28:00,31.6,26.0,29.71,WNW,292,0.0,0.0,78,0.00,,,0.00,Rainwise IP-100,2013-10-09 08:28:00,
2013-10-09 04:33:00,31.2,26.0,29.71,WNW,292,0.0,2.0,80,0.00,,,0.00,Rainwise IP-100,2013-10-09 08:33:00,
2013-10-09 04:38:00,30.9,24.0,29.71,WNW,292,0.0,0.0,79,0.00,,,0.00,Rainwise IP-100,2013-10-09 08:38:00,
2013-10-09 04:43:00,30.9,24.0,29.71,WNW,292,0.0,0.0,78,0.00,,,0.00,Rainwise IP-100,2013-10-09 08:43:00,
2013-10-09 04:48:00,30.9,26.0,29.71,WNW,292,2.0,3.0,82,0.00,,,0.00,Rainwise IP-100,2013-10-09 08:48:00,
2013-10-09 04:53:00,31.4,26.0,29.71,WNW,292,0.0,3.0,83,0.00,,,0.00,Rainwise IP-100,2013-10-09 08:53:00,
2013-10-09 04:58:00,31.9,28.0,29.72,WNW,292,0.0,0.0,82,0.00,,,0.00,Rainwise IP-100,2013-10-09 08:58:00,
2013-10-09 05:03:00,33.7,32.0,29.72,WSW,247,1.0,5.0,89,0.00,,,0.00,Rainwise IP-100,2013-10-09 09:03:00,
2013-10-09 05:09:00,34.5,31.0,29.72,WSW,247,0.0,4.0,87,0.00,,,0.00,Rainwise IP-100,2013-10-09 09:09:00,
2013-10-09 05:14:00,34.7,31.0,29.72,WSW,247,0.0,0.0,85,0.00,,,0.00,Rainwise IP-100,2013-10-09 09:14:00,
2013-10-09 05:19:00,34.8,31.0,29.73,WSW,247,0.0,0.0,84,0.00,,,0.00,Rainwise IP-100,2013-10-09 09:19:00,
2013-10-09 05:24:00,34.7,31.0,29.72,WSW,247,0.0,0.0,83,0.00,,,0.00,Rainwise IP-100,2013-10-09 09:24:00,
2013-10-09 05:29:00,34.3,29.0,29.72,WSW,247,0.0,0.0,81,0.00,,,0.00,Rainwise IP-100,2013-10-09 09:29:00,
2013-10-09 05:34:00,33.8,29.0,29.72,WSW,247,0.0,0.0,79,0.00,,,0.00,Rainwise IP-100,2013-10-09 09:34:00,
2013-10-09 05:39:00,33.2,28.0,29.72,WNW,292,2.0,4.0,79,0.00,,,0.00,Rainwise IP-100,2013-10-09 09:39:00,
2013-10-09 05:45:00,32.9,28.0,29.72,WNW,292,0.0,3.0,79,0.00,,,0.00,Rainwise IP-100,2013-10-09 09:45:00,
2013-10-09 05:50:00,32.9,28.0,29.72,WSW,247,1.0,4.0,81,0.00,,,0.00,Rainwise IP-100,2013-10-09 09:50:00,
2013-10-09 05:55:00,32.9,28.0,29.72,WSW,247,1.0,3.0,81,0.00,,,0.00,Rainwise IP-100,2013-10-09 09:55:00,
2013-10-09 06:00:00,32.8,28.0,29.72,WSW,247,0.0,2.0,81,0.00,,,0.00,Rainwise IP-100,2013-10-09 10:00:00,
2013-10-09 06:05:00,32.8,28.0,29.72,WSW,247,0.0,0.0,81,0.00,,,0.00,Rainwise IP-100,2013-10-09 10:05:00,
2013-10-09 06:10:00,32.6,28.0,29.73,WSW,247,0.0,0.0,79,0.00,,,0.00,Rainwise IP-100,2013-10-09 10:10:00,
2013-10-09 06:15:00,32.5,28.0,29.73,WSW,247,0.0,0.0,78,0.00,,,0.00,Rainwise IP-100,2013-10-09 10:15:00,
2013-10-09 06:20:00,32.3,26.0,29.74,WSW,247,0.0,0.0,79,0.00,,,0.00,Rainwise IP-100,2013-10-09 10:20:00,
2013-10-09 06:26:00,32.2,28.0,29.73,WSW,247,0.0,0.0,82,0.00,,,0.00,Rainwise IP-100,2013-10-09 10:26:00,
2013-10-09 06:31:00,32.2,28.0,29.74,WSW,247,1.0,4.0,82,0.00,,,0.00,Rainwise IP-100,2013-10-09 10:31:00,
2013-10-09 06:36:00,32.1,28.0,29.74,WSW,247,0.0,1.0,81,0.00,,,0.00,Rainwise IP-100,2013-10-09 10:36:00,
2013-10-09 06:41:00,31.7,28.0,29.74,West,270,2.0,3.0,82,0.00,,,0.00,Rainwise IP-100,2013-10-09 10:41:00,
2013-10-09 06:46:00,31.4,26.0,29.74,West,270,0.0,3.0,82,0.00,,,0.00,Rainwise IP-100,2013-10-09 10:46:00,
2013-10-09 06:51:00,31.1,26.0,29.74,West,270,0.0,0.0,81,0.00,,,0.00,Rainwise IP-100,2013-10-09 10:51:00,
2013-10-09 06:56:00,30.8,26.0,29.74,West,270,0.0,0.0,80,0.00,,,0.00,Rainwise IP-100,2013-10-09 10:56:00,
2013-10-09 07:02:00,30.8,26.0,29.74,West,270,0.0,0.0,80,0.00,,,0.00,Rainwise IP-100,2013-10-09 11:02:00,
2013-10-09 07:07:00,30.4,26.0,29.74,West,270,0.0,2.0,81,0.00,,,0.00,Rainwise IP-100,2013-10-09 11:07:00,
2013-10-09 07:12:00,30.3,26.0,29.74,West,270,0.0,1.0,81,0.00,,,0.00,Rainwise IP-100,2013-10-09 11:12:00,
2013-10-09 07:17:00,30.1,26.0,29.74,West,270,0.0,2.0,82,0.00,,,0.00,Rainwise IP-100,2013-10-09 11:17:00,
2013-10-09 07:22:00,29.9,26.0,29.74,West,270,0.0,0.0,81,0.00,,,0.00,Rainwise IP-100,2013-10-09 11:22:00,
2013-10-09 07:27:00,29.9,26.0,29.74,West,270,0.0,0.0,80,0.00,,,0.00,Rainwise IP-100,2013-10-09 11:27:00,
2013-10-09 07:32:00,30.1,26.0,29.74,West,270,0.0,0.0,80,0.00,,,0.00,Rainwise IP-100,2013-10-09 11:32:00,
2013-10-09 07:37:00,30.1,26.0,29.74,West,270,0.0,1.0,81,0.00,,,0.00,Rainwise IP-100,2013-10-09 11:37:00,
2013-10-09 07:43:00,30.5,26.0,29.74,West,270,0.0,1.0,82,0.00,,,0.00,Rainwise IP-100,2013-10-09 11:43:00,
2013-10-09 07:48:00,30.6,26.0,29.74,West,270,0.0,0.0,82,0.00,,,0.00,Rainwise IP-100,2013-10-09 11:48:00,
2013-10-09 07:53:00,30.9,26.0,29.74,West,270,0.0,0.0,81,0.00,,,0.00,Rainwise IP-100,2013-10-09 11:53:00,
2013-10-09 07:58:00,31.4,26.0,29.74,West,270,0.0,0.0,81,0.00,,,0.00,Rainwise IP-100,2013-10-09 11:58:00,
2013-10-09 08:02:00,31.7,26.0,29.75,West,270,0.0,0.0,80,0.00,,,0.00,Rainwise IP-100,2013-10-09 12:02:00,
2013-10-09 08:08:00,32.1,26.0,29.75,West,270,0.0,0.0,79,0.00,,,0.00,Rainwise IP-100,2013-10-09 12:08:00,
2013-10-09 08:13:00,32.4,26.0,29.75,West,270,0.0,0.0,78,0.00,,,0.00,Rainwise IP-100,2013-10-09 12:13:00,
2013-10-09 08:18:00,32.8,28.0,29.75,West,270,0.0,0.0,77,0.00,,,0.00,Rainwise IP-100,2013-10-09 12:18:00,
2013-10-09 08:23:00,32.9,26.0,29.76,West,270,0.0,0.0,76,0.00,,,0.00,Rainwise IP-100,2013-10-09 12:23:00,
2013-10-09 08:28:00,33.7,28.0,29.76,West,270,0.0,0.0,76,0.00,,,0.00,Rainwise IP-100,2013-10-09 12:28:00,
2013-10-09 08:33:00,34.6,28.0,29.76,West,270,0.0,0.0,76,0.00,,,0.00,Rainwise IP-100,2013-10-09 12:33:00,
2013-10-09 08:38:00,34.9,28.0,29.76,ESE,112,2.0,4.0,75,0.00,,,0.00,Rainwise IP-100,2013-10-09 12:38:00,
2013-10-09 08:43:00,35.2,28.0,29.76,ESE,112,2.0,3.0,74,0.00,,,0.00,Rainwise IP-100,2013-10-09 12:43:00,
2013-10-09 08:49:00,35.6,28.0,29.77,SE,135,0.0,3.0,72,0.00,,,0.00,Rainwise IP-100,2013-10-09 12:49:00,
2013-10-09 08:54:00,35.9,28.0,29.77,SW,225,3.0,4.0,72,0.00,,,0.00,Rainwise IP-100,2013-10-09 12:54:00,
2013-10-09 08:59:00,36.2,28.0,29.77,SSE,157,0.0,3.0,72,0.00,,,0.00,Rainwise IP-100,2013-10-09 12:59:00,
2013-10-09 09:04:00,36.3,28.0,29.78,South,180,0.0,4.0,72,0.00,,,0.00,Rainwise IP-100,2013-10-09 13:04:00,
2013-10-09 09:09:00,36.4,28.0,29.78,South,180,2.0,0.0,72,0.00,,,0.00,Rainwise IP-100,2013-10-09 13:09:00,
2013-10-09 09:14:00,36.7,29.0,29.78,SSE,157,1.0,3.0,72,0.00,,,0.00,Rainwise IP-100,2013-10-09 13:14:00,
2013-10-09 09:19:00,37.1,29.0,29.78,SSE,157,2.0,5.0,71,0.00,,,0.00,Rainwise IP-100,2013-10-09 13:19:00,
2013-10-09 09:25:00,37.3,29.0,29.78,SSE,157,0.0,4.0,71,0.00,,,0.00,Rainwise IP-100,2013-10-09 13:25:00,
2013-10-09 09:30:00,37.5,29.0,29.78,SSW,202,0.0,4.0,70,0.00,,,0.00,Rainwise IP-100,2013-10-09 13:30:00,
2013-10-09 09:35:00,37.7,29.0,29.78,ENE,67,0.0,2.0,70,0.00,,,0.00,Rainwise IP-100,2013-10-09 13:35:00,
2013-10-09 09:40:00,37.9,29.0,29.78,East,90,3.0,6.0,70,0.00,,,0.00,Rainwise IP-100,2013-10-09 13:40:00,
2013-10-09 09:45:00,38.1,29.0,29.79,East,90,2.0,4.0,69,0.00,,,0.00,Rainwise IP-100,2013-10-09 13:45:00,
2013-10-09 09:50:00,38.7,29.0,29.79,East,90,5.0,5.0,68,0.00,,,0.00,Rainwise IP-100,2013-10-09 13:50:00,
2013-10-09 09:55:00,38.6,29.0,29.79,East,90,2.0,5.0,68,0.00,,,0.00,Rainwise IP-100,2013-10-09 13:55:00,
2013-10-09 10:00:00,38.9,29.0,29.78,East,90,2.0,3.0,67,0.00,,,0.00,Rainwise IP-100,2013-10-09 14:00:00,
2013-10-09 10:05:00,39.4,29.0,29.79,ENE,67,2.0,4.0,67,0.00,,,0.00,Rainwise IP-100,2013-10-09 14:05:00,
2013-10-09 10:10:00,40.8,31.0,29.78,East,90,4.0,5.0,66,0.00,,,0.00,Rainwise IP-100,2013-10-09 14:10:00,
2013-10-09 10:15:00,41.2,31.0,29.79,SSW,202,1.0,5.0,64,0.00,,,0.00,Rainwise IP-100,2013-10-09 14:15:00,
2013-10-09 10:20:00,41.3,31.0,29.80,ENE,67,2.0,5.0,64,0.00,,,0.00,Rainwise IP-100,2013-10-09 14:20:00,
2013-10-09 10:26:00,41.9,31.0,29.80,East,90,2.0,5.0,63,0.00,,,0.00,Rainwise IP-100,2013-10-09 14:26:00,
2013-10-09 10:31:00,41.6,31.0,29.80,NE,45,4.0,6.0,63,0.00,,,0.00,Rainwise IP-100,2013-10-09 14:31:00,
2013-10-09 10:36:00,42.3,31.0,29.80,ENE,67,4.0,6.0,63,0.00,,,0.00,Rainwise IP-100,2013-10-09 14:36:00,
2013-10-09 10:41:00,43.5,32.0,29.80,NE,45,0.0,6.0,62,0.00,,,0.00,Rainwise IP-100,2013-10-09 14:41:00,
2013-10-09 10:46:00,44.9,32.0,29.80,SE,135,1.0,6.0,61,0.00,,,0.00,Rainwise IP-100,2013-10-09 14:46:00,
2013-10-09 10:51:00,45.5,33.0,29.80,ENE,67,2.0,4.0,60,0.00,,,0.00,Rainwise IP-100,2013-10-09 14:51:00,
2013-10-09 10:56:00,46.3,33.0,29.80,ESE,112,0.0,5.0,60,0.00,,,0.00,Rainwise IP-100,2013-10-09 14:56:00,
2013-10-09 11:02:00,47.8,33.0,29.80,NNE,22,3.0,4.0,58,0.00,,,0.00,Rainwise IP-100,2013-10-09 15:02:00,
2013-10-09 11:07:00,48.9,36.0,29.80,NE,45,2.0,6.0,59,0.00,,,0.00,Rainwise IP-100,2013-10-09 15:07:00,
2013-10-09 11:12:00,49.7,39.0,29.80,ENE,67,1.0,6.0,66,0.00,,,0.00,Rainwise IP-100,2013-10-09 15:12:00,
2013-10-09 11:17:00,50.6,39.0,29.80,North,360,0.0,6.0,64,0.00,,,0.00,Rainwise IP-100,2013-10-09 15:17:00,
2013-10-09 11:22:00,51.3,40.0,29.80,South,180,4.0,6.0,65,0.00,,,0.00,Rainwise IP-100,2013-10-09 15:22:00,
2013-10-09 11:27:00,52.3,42.0,29.80,NNE,22,3.0,4.0,69,0.00,,,0.00,Rainwise IP-100,2013-10-09 15:27:00,
2013-10-09 11:32:00,53.1,44.0,29.80,ENE,67,2.0,5.0,72,0.00,,,0.00,Rainwise IP-100,2013-10-09 15:32:00,
2013-10-09 11:37:00,53.5,50.0,29.80,ESE,112,1.0,6.0,90,0.00,,,0.00,Rainwise IP-100,2013-10-09 15:37:00,
2013-10-09 11:43:00,54.3,48.0,29.80,SW,225,5.0,5.0,81,0.00,,,0.00,Rainwise IP-100,2013-10-09 15:43:00,
2013-10-09 11:48:00,54.3,44.0,29.80,NW,315,4.0,7.0,69,0.00,,,0.00,Rainwise IP-100,2013-10-09 15:48:00,
2013-10-09 11:53:00,54.6,46.0,29.80,WSW,247,4.0,6.0,73,0.00,,,0.00,Rainwise IP-100,2013-10-09 15:53:00,
2013-10-09 11:58:00,54.7,48.0,29.80,NNE,22,3.0,6.0,78,0.00,,,0.00,Rainwise IP-100,2013-10-09 15:58:00,
2013-10-09 12:03:00,55.2,52.0,29.80,WSW,247,0.0,6.0,88,0.00,,,0.00,Rainwise IP-100,2013-10-09 16:03:00,
2013-10-09 12:08:00,55.8,47.0,29.80,SE,135,0.0,7.0,73,0.00,,,0.00,Rainwise IP-100,2013-10-09 16:08:00,
2013-10-09 12:13:00,56.3,48.0,29.80,NE,45,1.0,6.0,75,0.00,,,0.00,Rainwise IP-100,2013-10-09 16:13:00,
2013-10-09 12:19:00,56.8,49.0,29.80,SW,225,3.0,9.0,75,0.00,,,0.00,Rainwise IP-100,2013-10-09 16:19:00,
2013-10-09 12:24:00,57.6,45.0,29.80,SW,225,1.0,5.0,63,0.00,,,0.00,Rainwise IP-100,2013-10-09 16:24:00,
2013-10-09 12:29:00,58.4,48.0,29.80,ENE,67,2.0,5.0,69,0.00,,,0.00,Rainwise IP-100,2013-10-09 16:29:00,
2013-10-09 12:34:00,58.4,48.0,29.80,NNW,337,2.0,6.0,69,0.00,,,0.00,Rainwise IP-100,2013-10-09 16:34:00,
2013-10-09 12:39:00,58.7,47.0,29.80,SSE,157,3.0,6.0,64,0.00,,,0.00,Rainwise IP-100,2013-10-09 16:39:00,
2013-10-09 12:44:00,58.3,45.0,29.79,East,90,4.0,7.0,61,0.00,,,0.00,Rainwise IP-100,2013-10-09 16:44:00,
2013-10-09 12:49:00,58.4,43.0,29.79,East,90,1.0,6.0,58,0.00,,,0.00,Rainwise IP-100,2013-10-09 16:49:00,
2013-10-09 12:54:00,59.3,47.0,29.78,ESE,112,5.0,6.0,66,0.00,,,0.00,Rainwise IP-100,2013-10-09 16:54:00,
2013-10-09 13:00:00,59.7,44.0,29.78,NW,315,2.0,6.0,56,0.00,,,0.00,Rainwise IP-100,2013-10-09 17:00:00,
2013-10-09 13:05:00,60.1,48.0,29.78,NE,45,3.0,5.0,65,0.00,,,0.00,Rainwise IP-100,2013-10-09 17:05:00,
2013-10-09 13:10:00,60.8,50.0,29.78,NW,315,3.0,6.0,67,0.00,,,0.00,Rainwise IP-100,2013-10-09 17:10:00,
2013-10-09 13:15:00,60.8,47.0,29.78,SE,135,5.0,6.0,60,0.00,,,0.00,Rainwise IP-100,2013-10-09 17:15:00,
2013-10-09 13:20:00,61.2,47.0,29.78,SE,135,3.0,6.0,59,0.00,,,0.00,Rainwise IP-100,2013-10-09 17:20:00,
2013-10-09 13:25:00,60.7,44.0,29.78,NW,315,3.0,6.0,55,0.00,,,0.00,Rainwise IP-100,2013-10-09 17:25:00,
2013-10-09 13:30:00,61.0,46.0,29.78,East,90,6.0,6.0,57,0.00,,,0.00,Rainwise IP-100,2013-10-09 17:30:00,
2013-10-09 13:36:00,61.1,43.0,29.78,East,90,4.0,7.0,52,0.00,,,0.00,Rainwise IP-100,2013-10-09 17:36:00,
2013-10-09 13:41:00,61.2,45.0,29.78,ESE,112,1.0,6.0,55,0.00,,,0.00,Rainwise IP-100,2013-10-09 17:41:00,
2013-10-09 13:46:00,61.2,43.0,29.78,NE,45,0.0,6.0,52,0.00,,,0.00,Rainwise IP-100,2013-10-09 17:46:00,
2013-10-09 13:51:00,61.4,44.0,29.78,East,90,5.0,6.0,52,0.00,,,0.00,Rainwise IP-100,2013-10-09 17:51:00,
2013-10-09 13:56:00,61.3,43.0,29.77,East,90,4.0,6.0,51,0.00,,,0.00,Rainwise IP-100,2013-10-09 17:56:00,
2013-10-09 14:01:00,61.1,44.0,29.77,SW,225,0.0,6.0,54,0.00,,,0.00,Rainwise IP-100,2013-10-09 18:01:00,
2013-10-09 14:06:00,61.7,45.0,29.77,ESE,112,3.0,6.0,55,0.00,,,0.00,Rainwise IP-100,2013-10-09 18:06:00,
2013-10-09 14:11:00,61.7,44.0,29.78,SE,135,1.0,6.0,53,0.00,,,0.00,Rainwise IP-100,2013-10-09 18:11:00,
2013-10-09 14:17:00,62.2,45.0,29.77,South,180,1.0,6.0,54,0.00,,,0.00,Rainwise IP-100,2013-10-09 18:17:00,
2013-10-09 14:22:00,62.3,43.0,29.77,South,180,4.0,7.0,50,0.00,,,0.00,Rainwise IP-100,2013-10-09 18:22:00,
2013-10-09 14:27:00,61.9,43.0,29.77,NE,45,6.0,7.0,50,0.00,,,0.00,Rainwise IP-100,2013-10-09 18:27:00,
2013-10-09 14:32:00,61.9,42.0,29.77,ENE,67,3.0,6.0,49,0.00,,,0.00,Rainwise IP-100,2013-10-09 18:32:00,
2013-10-09 14:37:00,61.9,46.0,29.76,WSW,247,0.0,6.0,55,0.00,,,0.00,Rainwise IP-100,2013-10-09 18:37:00,
2013-10-09 14:42:00,62.6,45.0,29.76,South,180,1.0,7.0,52,0.00,,,0.00,Rainwise IP-100,2013-10-09 18:42:00,
2013-10-09 14:47:00,63.4,42.0,29.76,West,270,3.0,6.0,46,0.00,,,0.00,Rainwise IP-100,2013-10-09 18:47:00,
2013-10-09 14:53:00,63.4,47.0,29.76,East,90,3.0,6.0,54,0.00,,,0.00,Rainwise IP-100,2013-10-09 18:53:00,
2013-10-09 14:58:00,63.5,46.0,29.76,East,90,2.0,6.0,53,0.00,,,0.00,Rainwise IP-100,2013-10-09 18:58:00,
2013-10-09 15:03:00,62.9,43.0,29.75,SE,135,1.0,6.0,49,0.00,,,0.00,Rainwise IP-100,2013-10-09 19:03:00,
2013-10-09 15:08:00,63.1,43.0,29.75,South,180,0.0,4.0,49,0.00,,,0.00,Rainwise IP-100,2013-10-09 19:08:00,
2013-10-09 15:13:00,63.7,45.0,29.75,ESE,112,2.0,3.0,50,0.00,,,0.00,Rainwise IP-100,2013-10-09 19:13:00,
2013-10-09 15:18:00,63.3,43.0,29.75,ENE,67,2.0,6.0,49,0.00,,,0.00,Rainwise IP-100,2013-10-09 19:18:00,
2013-10-09 15:23:00,63.1,44.0,29.75,ESE,112,0.0,5.0,50,0.00,,,0.00,Rainwise IP-100,2013-10-09 19:23:00,
2013-10-09 15:28:00,63.4,45.0,29.75,ENE,67,0.0,6.0,50,0.00,,,0.00,Rainwise IP-100,2013-10-09 19:28:00,
2013-10-09 15:34:00,63.9,45.0,29.75,SE,135,0.0,3.0,50,0.00,,,0.00,Rainwise IP-100,2013-10-09 19:34:00,
2013-10-09 15:39:00,64.7,46.0,29.76,SSE,157,0.0,4.0,51,0.00,,,0.00,Rainwise IP-100,2013-10-09 19:39:00,
2013-10-09 15:44:00,64.6,43.0,29.75,SSE,157,2.0,6.0,46,0.00,,,0.00,Rainwise IP-100,2013-10-09 19:44:00,
2013-10-09 15:49:00,64.3,41.0,29.75,WSW,247,1.0,4.0,44,0.00,,,0.00,Rainwise IP-100,2013-10-09 19:49:00,
2013-10-09 15:53:00,63.7,42.0,29.75,East,90,0.0,7.0,45,0.00,,,0.00,Rainwise IP-100,2013-10-09 19:53:00,
2013-10-09 15:59:00,63.6,40.0,29.75,West,270,4.0,6.0,42,0.00,,,0.00,Rainwise IP-100,2013-10-09 19:59:00,
2013-10-09 16:04:00,62.6,40.0,29.75,WSW,247,4.0,6.0,44,0.00,,,0.00,Rainwise IP-100,2013-10-09 20:04:00,
2013-10-09 16:09:00,62.5,44.0,29.75,WSW,247,3.0,6.0,50,0.00,,,0.00,Rainwise IP-100,2013-10-09 20:09:00,
2013-10-09 16:14:00,62.3,44.0,29.74,West,270,3.0,3.0,52,0.00,,,0.00,Rainwise IP-100,2013-10-09 20:14:00,
2013-10-09 16:19:00,61.9,42.0,29.74,West,270,0.0,4.0,48,0.00,,,0.00,Rainwise IP-100,2013-10-09 20:19:00,
2013-10-09 16:24:00,62.0,44.0,29.74,West,270,2.0,4.0,52,0.00,,,0.00,Rainwise IP-100,2013-10-09 20:24:00,
2013-10-09 16:29:00,61.9,46.0,29.74,SW,225,2.0,3.0,55,0.00,,,0.00,Rainwise IP-100,2013-10-09 20:29:00,
2013-10-09 16:34:00,62.2,47.0,29.74,SW,225,0.0,3.0,57,0.00,,,0.00,Rainwise IP-100,2013-10-09 20:34:00,
2013-10-09 16:40:00,62.1,47.0,29.74,East,90,0.0,2.0,57,0.00,,,0.00,Rainwise IP-100,2013-10-09 20:40:00,
2013-10-09 16:45:00,62.2,46.0,29.74,East,90,0.0,0.0,55,0.00,,,0.00,Rainwise IP-100,2013-10-09 20:45:00,
2013-10-09 16:50:00,62.5,48.0,29.74,East,90,0.0,0.0,59,0.00,,,0.00,Rainwise IP-100,2013-10-09 20:50:00,
2013-10-09 16:55:00,62.3,49.0,29.74,SSW,202,0.0,0.0,62,0.00,,,0.00,Rainwise IP-100,2013-10-09 20:55:00,
2013-10-09 17:00:00,61.4,50.0,29.73,SW,225,0.0,3.0,65,0.00,,,0.00,Rainwise IP-100,2013-10-09 21:00:00,
2013-10-09 17:05:00,60.5,50.0,29.73,SW,225,0.0,3.0,69,0.00,,,0.00,Rainwise IP-100,2013-10-09 21:05:00,
2013-10-09 17:10:00,59.9,50.0,29.73,SW,225,1.0,0.0,70,0.00,,,0.00,Rainwise IP-100,2013-10-09 21:10:00,
2013-10-09 17:16:00,58.9,49.0,29.72,SW,225,0.0,3.0,70,0.00,,,0.00,Rainwise IP-100,2013-10-09 21:16:00,
2013-10-09 17:21:00,58.4,49.0,29.72,SW,225,0.0,0.0,71,0.00,,,0.00,Rainwise IP-100,2013-10-09 21:21:00,
2013-10-09 17:26:00,57.7,49.0,29.72,SW,225,2.0,2.0,72,0.00,,,0.00,Rainwise IP-100,2013-10-09 21:26:00,
2013-10-09 17:31:00,56.6,48.0,29.72,SW,225,0.0,2.0,73,0.00,,,0.00,Rainwise IP-100,2013-10-09 21:31:00,
2013-10-09 17:36:00,55.7,48.0,29.72,SW,225,0.0,2.0,76,0.00,,,0.00,Rainwise IP-100,2013-10-09 21:36:00,
2013-10-09 17:41:00,54.7,50.0,29.72,SW,225,0.0,0.0,84,0.00,,,0.00,Rainwise IP-100,2013-10-09 21:41:00,
2013-10-09 17:46:00,53.7,47.0,29.71,SW,225,0.0,0.0,79,0.00,,,0.00,Rainwise IP-100,2013-10-09 21:46:00,
2013-10-09 17:51:00,52.5,47.0,29.71,SW,225,0.0,0.0,80,0.00,,,0.00,Rainwise IP-100,2013-10-09 21:51:00,
2013-10-09 17:57:00,51.6,49.0,29.71,SW,225,0.0,0.0,89,0.00,,,0.00,Rainwise IP-100,2013-10-09 21:57:00,
2013-10-09 18:02:00,50.7,49.0,29.71,SW,225,0.0,0.0,94,0.00,,,0.00,Rainwise IP-100,2013-10-09 22:02:00,
2013-10-09 18:07:00,49.8,48.0,29.71,SW,225,0.0,0.0,95,0.00,,,0.00,Rainwise IP-100,2013-10-09 22:07:00,
2013-10-09 18:12:00,48.8,47.0,29.70,SW,225,0.0,0.0,90,0.00,,,0.00,Rainwise IP-100,2013-10-09 22:12:00,
2013-10-09 18:17:00,48.2,47.0,29.70,SW,225,0.0,0.0,95,0.00,,,0.00,Rainwise IP-100,2013-10-09 22:17:00,
2013-10-09 18:22:00,47.5,46.0,29.70,SW,225,0.0,0.0,95,0.00,,,0.00,Rainwise IP-100,2013-10-09 22:22:00,
2013-10-09 18:27:00,47.1,47.0,29.70,SW,225,0.0,0.0,100,0.00,,,0.00,Rainwise IP-100,2013-10-09 22:27:00,
2013-10-09 18:33:00,46.8,43.0,29.70,SW,225,0.0,0.0,87,0.00,,,0.00,Rainwise IP-100,2013-10-09 22:33:00,
2013-10-09 18:38:00,46.4,41.0,29.70,SW,225,0.0,0.0,84,0.00,,,0.00,Rainwise IP-100,2013-10-09 22:38:00,
2013-10-09 18:43:00,45.9,42.0,29.70,SW,225,0.0,0.0,86,0.00,,,0.00,Rainwise IP-100,2013-10-09 22:43:00,
2013-10-09 18:48:00,45.2,41.0,29.70,SW,225,0.0,0.0,87,0.00,,,0.00,Rainwise IP-100,2013-10-09 22:48:00,
2013-10-09 18:53:00,44.8,43.0,29.70,SW,225,0.0,0.0,92,0.00,,,0.00,Rainwise IP-100,2013-10-09 22:53:00,
2013-10-09 18:58:00,44.4,38.0,29.70,SW,225,0.0,0.0,79,0.00,,,0.00,Rainwise IP-100,2013-10-09 22:58:00,
2013-10-09 19:03:00,44.2,36.0,29.70,SW,225,0.0,0.0,72,0.00,,,0.00,Rainwise IP-100,2013-10-09 23:03:00,
2013-10-09 19:08:00,43.9,37.0,29.70,SW,225,0.0,0.0,76,0.00,,,0.00,Rainwise IP-100,2013-10-09 23:08:00,
2013-10-09 19:14:00,43.6,38.0,29.69,SW,225,0.0,0.0,78,0.00,,,0.00,Rainwise IP-100,2013-10-09 23:14:00,
2013-10-09 19:19:00,43.6,36.0,29.69,SW,225,0.0,2.0,74,0.00,,,0.00,Rainwise IP-100,2013-10-09 23:19:00,
2013-10-09 19:24:00,43.6,36.0,29.69,SW,225,0.0,0.0,72,0.00,,,0.00,Rainwise IP-100,2013-10-09 23:24:00,
2013-10-09 19:29:00,43.4,35.0,29.69,SW,225,0.0,2.0,72,0.00,,,0.00,Rainwise IP-100,2013-10-09 23:29:00,
2013-10-09 19:34:00,43.3,35.0,29.69,SW,225,0.0,0.0,72,0.00,,,0.00,Rainwise IP-100,2013-10-09 23:34:00,
2013-10-09 19:39:00,43.2,32.0,29.69,SW,225,0.0,1.0,65,0.00,,,0.00,Rainwise IP-100,2013-10-09 23:39:00,
2013-10-09 19:44:00,43.2,32.0,29.69,SW,225,0.0,2.0,64,0.00,,,0.00,Rainwise IP-100,2013-10-09 23:44:00,
2013-10-09 19:50:00,43.3,32.0,29.69,SW,225,0.0,1.0,64,0.00,,,0.00,Rainwise IP-100,2013-10-09 23:50:00,
2013-10-09 19:55:00,43.2,32.0,29.68,SW,225,0.0,2.0,65,0.00,,,0.00,Rainwise IP-100,2013-10-09 23:55:00,
2013-10-09 20:00:00,43.1,32.0,29.68,SW,225,0.0,1.0,64,0.00,,,0.00,Rainwise IP-100,2013-10-10 00:00:00,
2013-10-09 20:05:00,42.9,32.0,29.68,SW,225,0.0,0.0,65,0.00,,,0.00,Rainwise IP-100,2013-10-10 00:05:00,
2013-10-09 20:10:00,42.6,32.0,29.68,SW,225,0.0,0.0,64,0.00,,,0.00,Rainwise IP-100,2013-10-10 00:10:00,
2013-10-09 20:15:00,42.5,32.0,29.68,SW,225,0.0,0.0,65,0.00,,,0.00,Rainwise IP-100,2013-10-10 00:15:00,
2013-10-09 20:20:00,42.2,31.0,29.68,SW,225,0.0,0.0,64,0.00,,,0.00,Rainwise IP-100,2013-10-10 00:20:00,
2013-10-09 20:25:00,41.9,32.0,29.68,SW,225,0.0,0.0,66,0.00,,,0.00,Rainwise IP-100,2013-10-10 00:25:00,
2013-10-09 20:31:00,41.7,32.0,29.68,SW,225,0.0,0.0,66,0.00,,,0.00,Rainwise IP-100,2013-10-10 00:31:00,
2013-10-09 20:36:00,41.6,32.0,29.68,SW,225,0.0,0.0,67,0.00,,,0.00,Rainwise IP-100,2013-10-10 00:36:00,
2013-10-09 20:41:00,41.6,32.0,29.68,SW,225,0.0,0.0,66,0.00,,,0.00,Rainwise IP-100,2013-10-10 00:41:00,
2013-10-09 20:46:00,41.4,31.0,29.68,SW,225,0.0,0.0,67,0.00,,,0.00,Rainwise IP-100,2013-10-10 00:46:00,
2013-10-09 20:51:00,41.3,31.0,29.68,SW,225,0.0,0.0,67,0.00,,,0.00,Rainwise IP-100,2013-10-10 00:51:00,
2013-10-09 20:56:00,40.9,31.0,29.68,SW,225,0.0,0.0,67,0.00,,,0.00,Rainwise IP-100,2013-10-10 00:56:00,
2013-10-09 21:01:00,40.6,31.0,29.68,SW,225,0.0,0.0,67,0.00,,,0.00,Rainwise IP-100,2013-10-10 01:01:00,
2013-10-09 21:07:00,40.5,31.0,29.68,SW,225,0.0,0.0,66,0.00,,,0.00,Rainwise IP-100,2013-10-10 01:07:00,
2013-10-09 21:12:00,40.9,31.0,29.68,SW,225,0.0,0.0,65,0.00,,,0.00,Rainwise IP-100,2013-10-10 01:12:00,
2013-10-09 21:17:00,40.6,31.0,29.68,SW,225,0.0,0.0,65,0.00,,,0.00,Rainwise IP-100,2013-10-10 01:17:00,
2013-10-09 21:22:00,40.5,31.0,29.68,SW,225,0.0,0.0,65,0.00,,,0.00,Rainwise IP-100,2013-10-10 01:22:00,
2013-10-09 21:27:00,40.1,29.0,29.68,SW,225,0.0,0.0,65,0.00,,,0.00,Rainwise IP-100,2013-10-10 01:27:00,
2013-10-09 21:32:00,40.1,31.0,29.68,SW,225,0.0,0.0,66,0.00,,,0.00,Rainwise IP-100,2013-10-10 01:32:00,
2013-10-09 21:37:00,40.2,31.0,29.68,SW,225,0.0,0.0,66,0.00,,,0.00,Rainwise IP-100,2013-10-10 01:37:00,
2013-10-09 21:42:00,40.1,29.0,29.68,SW,225,0.0,0.0,65,0.00,,,0.00,Rainwise IP-100,2013-10-10 01:42:00,
2013-10-09 21:48:00,39.8,29.0,29.68,SW,225,0.0,0.0,65,0.00,,,0.00,Rainwise IP-100,2013-10-10 01:48:00,
2013-10-09 21:53:00,39.7,29.0,29.68,SW,225,0.0,0.0,65,0.00,,,0.00,Rainwise IP-100,2013-10-10 01:53:00,
2013-10-09 21:58:00,39.6,31.0,29.68,SW,225,0.0,2.0,66,0.00,,,0.00,Rainwise IP-100,2013-10-10 01:58:00,
2013-10-09 22:03:00,39.6,29.0,29.67,SW,225,0.0,0.0,65,0.00,,,0.00,Rainwise IP-100,2013-10-10 02:03:00,
2013-10-09 22:08:00,39.4,29.0,29.68,SW,225,0.0,0.0,66,0.00,,,0.00,Rainwise IP-100,2013-10-10 02:08:00,
2013-10-09 22:13:00,39.2,29.0,29.67,SW,225,0.0,0.0,66,0.00,,,0.00,Rainwise IP-100,2013-10-10 02:13:00,
2013-10-09 22:18:00,39.2,29.0,29.67,SW,225,0.0,0.0,68,0.00,,,0.00,Rainwise IP-100,2013-10-10 02:18:00,
2013-10-09 22:24:00,39.1,29.0,29.68,SW,225,0.0,0.0,68,0.00,,,0.00,Rainwise IP-100,2013-10-10 02:24:00,
2013-10-09 22:29:00,38.9,29.0,29.67,SW,225,0.0,0.0,66,0.00,,,0.00,Rainwise IP-100,2013-10-10 02:29:00,
2013-10-09 22:34:00,38.8,29.0,29.67,SW,225,0.0,0.0,67,0.00,,,0.00,Rainwise IP-100,2013-10-10 02:34:00,
2013-10-09 22:39:00,38.8,29.0,29.68,SW,225,0.0,0.0,66,0.00,,,0.00,Rainwise IP-100,2013-10-10 02:39:00,
2013-10-09 22:44:00,38.6,29.0,29.67,SW,225,0.0,0.0,66,0.00,,,0.00,Rainwise IP-100,2013-10-10 02:44:00,
2013-10-09 22:49:00,38.5,29.0,29.67,SW,225,0.0,0.0,67,0.00,,,0.00,Rainwise IP-100,2013-10-10 02:49:00,
2013-10-09 22:54:00,38.3,28.0,29.67,SW,225,0.0,0.0,67,0.00,,,0.00,Rainwise IP-100,2013-10-10 02:54:00,
2013-10-09 22:59:00,38.0,28.0,29.67,SW,225,0.0,0.0,66,0.00,,,0.00,Rainwise IP-100,2013-10-10 02:59:00,
2013-10-09 23:05:00,37.8,28.0,29.67,SW,225,0.0,0.0,67,0.00,,,0.00,Rainwise IP-100,2013-10-10 03:05:00,
2013-10-09 23:10:00,37.8,28.0,29.67,SW,225,0.0,0.0,67,0.00,,,0.00,Rainwise IP-100,2013-10-10 03:10:00,
2013-10-09 23:15:00,37.7,29.0,29.67,SW,225,0.0,0.0,68,0.00,,,0.00,Rainwise IP-100,2013-10-10 03:15:00,
2013-10-09 23:20:00,37.8,29.0,29.67,SW,225,0.0,0.0,68,0.00,,,0.00,Rainwise IP-100,2013-10-10 03:20:00,
2013-10-09 23:25:00,37.9,29.0,29.66,SW,225,0.0,0.0,71,0.00,,,0.00,Rainwise IP-100,2013-10-10 03:25:00,
2013-10-09 23:30:00,37.9,29.0,29.67,SW,225,0.0,0.0,70,0.00,,,0.00,Rainwise IP-100,2013-10-10 03:30:00,
2013-10-09 23:35:00,37.6,29.0,29.66,SW,225,0.0,0.0,68,0.00,,,0.00,Rainwise IP-100,2013-10-10 03:35:00,
2013-10-09 23:41:00,37.5,29.0,29.66,SW,225,0.0,0.0,68,0.00,,,0.00,Rainwise IP-100,2013-10-10 03:41:00,
2013-10-09 23:46:00,37.5,29.0,29.66,SW,225,0.0,0.0,68,0.00,,,0.00,Rainwise IP-100,2013-10-10 03:46:00,
2013-10-09 23:51:00,37.5,28.0,29.66,SW,225,0.0,0.0,66,0.00,,,0.00,Rainwise IP-100,2013-10-10 03:51:00,
2013-10-09 23:56:00,37.3,28.0,29.66,SW,225,0.0,0.0,68,0.00,,,0.00,Rainwise IP-100,2013-10-10 03:56:00,